createdAt,value
2023-01-19T00:01:29.979Z,8.11
2023-01-19T00:03:57.277Z,8.39
2023-01-19T00:06:24.728Z,8.50
2023-01-19T00:08:52.133Z,8.42
2023-01-19T00:11:20.124Z,8.44
2023-01-19T00:13:51.636Z,8.59
2023-01-19T00:16:21.794Z,8.64
2023-01-19T00:18:51.663Z,8.51
2023-01-19T00:21:19.760Z,8.57
2023-01-19T00:23:47.809Z,8.52
2023-01-19T00:26:16.575Z,8.44
2023-01-19T00:28:44.623Z,8.30
2023-01-19T00:31:12.517Z,7.91
2023-01-19T00:33:39.879Z,7.77
2023-01-19T00:36:09.134Z,7.68
2023-01-19T00:38:36.468Z,7.43
2023-01-19T00:41:03.705Z,7.30
2023-01-19T00:43:30.930Z,7.37
2023-01-19T00:45:58.331Z,7.22
2023-01-19T00:48:25.675Z,7.12
2023-01-19T00:50:52.959Z,7.14
2023-01-19T00:53:20.310Z,7.16
2023-01-19T00:55:47.828Z,7.27
2023-01-19T00:58:15.290Z,7.15
2023-01-19T01:00:42.936Z,7.09
2023-01-19T01:03:10.421Z,7.11
2023-01-19T01:05:41.843Z,7.07
2023-01-19T01:08:09.127Z,6.98
2023-01-19T01:10:36.464Z,6.91
2023-01-19T01:13:20.313Z,6.93
2023-01-19T01:15:53.175Z,7.16
2023-01-19T01:18:21.657Z,7.31
2023-01-19T01:20:49.072Z,7.32
2023-01-19T01:23:16.513Z,7.20
2023-01-19T01:25:43.933Z,7.19
2023-01-19T01:28:11.348Z,7.21
2023-01-19T01:30:41.102Z,7.34
2023-01-19T01:33:08.496Z,7.36
2023-01-19T01:35:35.876Z,7.33
2023-01-19T01:38:03.904Z,7.25
2023-01-19T01:40:31.388Z,7.31
2023-01-19T01:42:59.145Z,7.37
2023-01-19T01:45:38.410Z,7.26
2023-01-19T01:48:05.848Z,7.33
2023-01-19T01:50:35.669Z,7.24
2023-01-19T01:53:08.408Z,7.27
2023-01-19T01:55:45.479Z,7.25
2023-01-19T01:58:15.447Z,7.28
2023-01-19T02:01:01.653Z,7.31
2023-01-19T02:03:29.751Z,7.30
2023-01-19T02:06:01.892Z,7.38
2023-01-19T02:09:00.965Z,7.27
2023-01-19T02:11:48.523Z,7.27
2023-01-19T02:14:16.314Z,7.45
2023-01-19T02:16:43.927Z,7.63
2023-01-19T02:19:18.173Z,7.65
2023-01-19T02:21:58.665Z,7.55
2023-01-19T02:24:29.613Z,7.56
2023-01-19T02:26:58.051Z,7.48
2023-01-19T02:29:26.694Z,7.43
2023-01-19T02:31:55.758Z,7.27
2023-01-19T02:34:23.332Z,7.15
2023-01-19T02:36:52.758Z,7.11
2023-01-19T02:39:28.161Z,7.15
2023-01-19T02:42:01.474Z,7.24
2023-01-19T02:44:30.706Z,7.18
2023-01-19T02:46:58.025Z,7.32
2023-01-19T02:49:28.624Z,7.19
2023-01-19T02:51:56.810Z,7.18
2023-01-19T02:54:35.921Z,7.05
2023-01-19T02:57:12.401Z,7.18
2023-01-19T03:00:13.628Z,7.28
2023-01-19T03:02:59.174Z,7.20
2023-01-19T03:05:51.395Z,7.15
2023-01-19T03:08:42.294Z,7.06
2023-01-19T03:11:12.711Z,7.27
2023-01-19T03:13:45.956Z,7.07
2023-01-19T03:16:13.450Z,7.07
2023-01-19T03:18:46.149Z,7.00
2023-01-19T03:21:15.121Z,6.96
2023-01-19T03:23:46.250Z,6.92
2023-01-19T03:26:18.487Z,6.95
2023-01-19T03:28:47.502Z,6.98
2023-01-19T03:31:22.669Z,7.02
2023-01-19T03:34:22.958Z,7.01
2023-01-19T03:36:54.138Z,7.02
2023-01-19T03:39:28.733Z,7.21
2023-01-19T03:42:03.137Z,7.09
2023-01-19T03:44:33.278Z,7.25
2023-01-19T03:47:01.097Z,7.03
2023-01-19T03:49:31.553Z,6.97
2023-01-19T03:51:59.567Z,6.85
2023-01-19T03:54:27.532Z,7.12
2023-01-19T03:56:54.860Z,7.25
2023-01-19T03:59:22.380Z,7.23
2023-01-19T04:01:49.847Z,7.22
2023-01-19T04:04:17.363Z,7.11
2023-01-19T04:06:44.790Z,7.28
2023-01-19T04:09:12.081Z,7.15
2023-01-19T04:11:39.491Z,7.15
2023-01-19T04:14:06.813Z,7.20
2023-01-19T04:16:34.217Z,7.22
2023-01-19T04:19:01.864Z,7.13
2023-01-19T04:21:29.249Z,6.98
2023-01-19T04:23:56.493Z,6.98
2023-01-19T04:26:24.097Z,6.99
2023-01-19T04:28:51.477Z,6.92
2023-01-19T04:31:19.447Z,6.80
2023-01-19T04:33:46.770Z,6.85
2023-01-19T04:36:14.026Z,6.82
2023-01-19T04:38:41.337Z,6.71
2023-01-19T04:41:08.657Z,6.68
2023-01-19T04:43:35.983Z,6.77
2023-01-19T04:46:05.812Z,6.84
2023-01-19T04:48:33.426Z,6.79
2023-01-19T04:51:00.790Z,6.70
2023-01-19T04:53:30.901Z,6.59
2023-01-19T04:55:59.762Z,6.57
2023-01-19T04:58:27.395Z,6.57
2023-01-19T05:00:54.664Z,6.52
2023-01-19T05:03:21.908Z,6.53
2023-01-19T05:05:49.240Z,6.47
2023-01-19T05:08:16.570Z,6.43
2023-01-19T05:10:43.776Z,6.43
2023-01-19T05:13:11.024Z,6.33
2023-01-19T05:15:38.531Z,6.34
2023-01-19T05:18:05.973Z,6.37
2023-01-19T05:20:33.241Z,6.38
2023-01-19T05:23:01.202Z,6.31
2023-01-19T05:25:29.113Z,6.34
2023-01-19T05:27:56.344Z,6.33
2023-01-19T05:30:24.547Z,6.36
2023-01-19T05:32:52.532Z,6.37
2023-01-19T05:35:31.345Z,6.39
2023-01-19T05:38:03.212Z,6.30
2023-01-19T05:40:31.268Z,6.30
2023-01-19T05:43:01.636Z,6.39
2023-01-19T05:45:30.173Z,6.38
2023-01-19T05:47:57.606Z,6.32
2023-01-19T05:50:25.471Z,6.34
2023-01-19T05:52:53.612Z,6.26
2023-01-19T05:55:21.578Z,6.25
2023-01-19T05:57:48.879Z,6.22
2023-01-19T06:00:17.222Z,6.25
2023-01-19T06:02:44.977Z,6.23
2023-01-19T06:05:12.506Z,6.19
2023-01-19T06:07:39.897Z,6.19
2023-01-19T06:10:08.471Z,6.16
2023-01-19T06:12:35.909Z,6.11
2023-01-19T06:15:03.437Z,6.08
2023-01-19T06:17:32.533Z,6.00
2023-01-19T06:19:59.738Z,5.98
2023-01-19T06:22:27.112Z,6.11
2023-01-19T06:24:54.601Z,6.09
2023-01-19T06:27:21.991Z,6.00
2023-01-19T06:29:49.257Z,5.95
2023-01-19T06:32:17.519Z,5.98
2023-01-19T06:34:44.964Z,6.00
2023-01-19T06:37:12.358Z,5.92
2023-01-19T06:39:41.282Z,5.96
2023-01-19T06:42:09.232Z,5.90
2023-01-19T06:44:37.109Z,5.90
2023-01-19T06:47:15.751Z,5.96
2023-01-19T06:49:44.167Z,5.97
2023-01-19T06:52:14.276Z,5.93
2023-01-19T06:54:43.395Z,5.99
2023-01-19T06:57:14.041Z,5.94
2023-01-19T06:59:42.182Z,5.99
2023-01-19T07:02:27.770Z,5.63
2023-01-19T07:04:56.978Z,5.51
2023-01-19T07:07:24.634Z,5.59
2023-01-19T07:09:54.095Z,5.59
2023-01-19T07:12:22.600Z,5.81
2023-01-19T07:14:50.465Z,6.03
2023-01-19T07:17:18.288Z,6.08
2023-01-19T07:19:46.764Z,5.92
2023-01-19T07:22:14.332Z,6.16
2023-01-19T07:24:41.820Z,6.08
2023-01-19T07:27:11.567Z,6.02
2023-01-19T07:29:40.038Z,6.07
2023-01-19T07:32:07.629Z,5.97
2023-01-19T07:34:36.030Z,5.62
2023-01-19T07:37:04.446Z,5.42
2023-01-19T07:39:32.174Z,5.67
2023-01-19T07:41:59.863Z,5.85
2023-01-19T07:44:27.268Z,5.89
2023-01-19T07:46:54.694Z,5.81
2023-01-19T07:49:22.089Z,5.82
2023-01-19T07:51:49.778Z,5.81
2023-01-19T07:54:17.075Z,5.77
2023-01-19T07:56:44.444Z,5.73
2023-01-19T07:59:12.140Z,5.73
2023-01-19T08:01:39.738Z,5.80
2023-01-19T08:04:07.245Z,5.74
2023-01-19T08:06:37.440Z,5.78
2023-01-19T08:09:05.794Z,5.33
2023-01-19T08:11:33.744Z,5.68
2023-01-19T08:14:01.114Z,5.78
2023-01-19T08:16:28.485Z,5.73
2023-01-19T08:18:56.298Z,5.72
2023-01-19T08:21:23.868Z,5.64
2023-01-19T08:23:55.615Z,5.21
2023-01-19T08:26:29.919Z,5.18
2023-01-19T08:29:00.029Z,5.09
2023-01-19T08:31:27.620Z,5.58
2023-01-19T08:33:55.275Z,5.63
2023-01-19T08:36:23.892Z,5.84
2023-01-19T08:38:52.673Z,6.07
2023-01-19T08:41:20.288Z,6.09
2023-01-19T08:43:48.225Z,5.93
2023-01-19T08:46:21.818Z,5.96
2023-01-19T08:48:50.427Z,6.06
2023-01-19T08:51:18.562Z,6.20
2023-01-19T08:53:45.968Z,5.93
2023-01-19T08:56:13.882Z,5.49
2023-01-19T08:58:42.359Z,6.10
2023-01-19T09:01:14.897Z,5.66
2023-01-19T09:03:42.748Z,5.40
2023-01-19T09:06:14.651Z,5.67
2023-01-19T09:08:42.001Z,5.73
2023-01-19T09:11:13.705Z,5.82
2023-01-19T09:13:41.694Z,5.85
2023-01-19T09:16:11.526Z,5.45
2023-01-19T09:18:39.424Z,5.34
2023-01-19T09:21:06.839Z,5.30
2023-01-19T09:23:34.220Z,5.37
2023-01-19T09:26:03.478Z,5.30
2023-01-19T09:28:30.991Z,5.85
2023-01-19T09:30:58.405Z,6.09
2023-01-19T09:33:25.849Z,6.23
2023-01-19T09:35:53.143Z,6.02
2023-01-19T09:38:20.928Z,6.25
2023-01-19T09:40:54.469Z,6.32
2023-01-19T09:43:30.998Z,6.35
2023-01-19T09:46:04.166Z,6.30
2023-01-19T09:48:34.530Z,6.32
2023-01-19T09:51:08.613Z,6.23
2023-01-19T09:53:55.588Z,6.11
2023-01-19T09:56:23.918Z,6.00
2023-01-19T09:58:52.223Z,5.90
2023-01-19T10:01:28.692Z,5.75
2023-01-19T10:04:17.346Z,5.77
2023-01-19T10:06:46.745Z,5.73
2023-01-19T10:09:32.036Z,5.67
2023-01-19T10:12:35.748Z,5.62
2023-01-19T10:15:20.847Z,5.76
2023-01-19T10:18:09.518Z,5.86
2023-01-19T10:20:41.776Z,5.98
2023-01-19T10:23:25.089Z,6.07
2023-01-19T10:25:52.510Z,6.17
2023-01-19T10:28:25.536Z,5.97
2023-01-19T10:30:55.904Z,5.78
2023-01-19T10:33:23.336Z,5.72
2023-01-19T10:35:50.763Z,5.49
2023-01-19T10:38:22.324Z,5.36
2023-01-19T10:40:59.745Z,5.20
2023-01-19T10:43:44.294Z,5.08
2023-01-19T10:46:17.800Z,4.98
2023-01-19T10:48:48.943Z,4.81
2023-01-19T10:51:16.582Z,4.74
2023-01-19T10:54:02.198Z,4.66
2023-01-19T10:56:37.304Z,4.57
2023-01-19T10:59:07.030Z,4.56
2023-01-19T11:01:37.303Z,4.57
2023-01-19T11:04:28.623Z,4.70
2023-01-19T11:07:23.021Z,4.79
2023-01-19T11:10:10.678Z,4.90
2023-01-19T11:13:02.816Z,5.01
2023-01-19T11:15:44.057Z,4.98
2023-01-19T11:18:33.899Z,5.03
2023-01-19T11:21:06.447Z,4.88
2023-01-19T11:23:42.096Z,4.74
2023-01-19T11:26:16.375Z,4.55
2023-01-19T11:28:48.727Z,4.45
2023-01-19T11:31:16.078Z,4.43
2023-01-19T11:33:50.567Z,4.48
2023-01-19T11:36:21.349Z,4.55
2023-01-19T11:38:51.826Z,4.64
2023-01-19T11:41:26.091Z,4.60
2023-01-19T11:43:55.977Z,4.63
2023-01-19T11:46:27.365Z,4.81
2023-01-19T11:49:20.035Z,4.77
2023-01-19T11:51:53.334Z,4.77
2023-01-19T11:54:27.380Z,4.81
2023-01-19T11:56:58.673Z,4.85
2023-01-19T11:59:26.221Z,5.00
2023-01-19T12:01:57.976Z,5.07
2023-01-19T12:04:32.845Z,5.09
2023-01-19T12:07:07.747Z,5.20
2023-01-19T12:09:42.794Z,5.25
2023-01-19T12:12:31.149Z,5.15
2023-01-19T12:15:26.454Z,4.93
2023-01-19T12:17:58.695Z,4.92
2023-01-19T12:20:36.668Z,4.81
2023-01-19T12:23:25.418Z,4.40
2023-01-19T12:26:21.972Z,4.15
2023-01-19T12:28:51.201Z,4.00
2023-01-19T12:31:23.243Z,4.00
2023-01-19T12:33:51.529Z,3.85
2023-01-19T12:36:27.849Z,3.83
2023-01-19T12:39:19.215Z,3.85
2023-01-19T12:41:47.539Z,3.77
2023-01-19T12:44:21.330Z,3.80
2023-01-19T12:47:07.643Z,3.69
2023-01-19T12:49:40.491Z,3.74
2023-01-19T12:52:25.436Z,3.77
2023-01-19T12:55:13.534Z,3.70
2023-01-19T12:58:02.213Z,3.63
2023-01-19T13:00:33.725Z,3.73
2023-01-19T13:03:03.942Z,3.56
2023-01-19T13:05:32.824Z,3.48
2023-01-19T13:08:07.199Z,3.45
2023-01-19T13:10:53.294Z,3.46
2023-01-19T13:13:24.747Z,3.41
2023-01-19T13:15:55.602Z,3.31
2023-01-19T13:18:39.123Z,3.40
2023-01-19T13:21:09.038Z,3.38
2023-01-19T13:23:51.450Z,3.48
2023-01-19T13:26:33.086Z,3.40
2023-01-19T13:29:08.789Z,3.37
2023-01-19T13:31:38.412Z,3.38
2023-01-19T13:34:17.150Z,3.32
2023-01-19T13:36:47.227Z,3.20
2023-01-19T13:39:28.893Z,3.18
2023-01-19T13:42:01.513Z,3.06
2023-01-19T13:44:42.344Z,3.09
2023-01-19T13:47:19.156Z,3.03
2023-01-19T13:49:48.567Z,3.02
2023-01-19T13:52:25.629Z,2.99
2023-01-19T13:54:55.100Z,2.98
2023-01-19T13:57:25.022Z,3.02
2023-01-19T14:00:01.415Z,2.99
2023-01-19T14:02:28.794Z,2.94
2023-01-19T14:04:57.304Z,2.92
2023-01-19T14:07:26.589Z,2.98
2023-01-19T14:10:06.131Z,2.88
2023-01-19T14:12:33.636Z,2.90
2023-01-19T14:15:01.003Z,2.92
2023-01-19T14:17:30.414Z,2.95
2023-01-19T14:20:01.000Z,2.93
2023-01-19T14:22:42.580Z,3.01
2023-01-19T14:25:34.268Z,3.00
2023-01-19T14:28:30.441Z,3.06
2023-01-19T14:31:00.700Z,3.06
2023-01-19T14:33:41.946Z,3.03
2023-01-19T14:36:11.667Z,3.09
2023-01-19T14:38:50.596Z,3.15
2023-01-19T14:41:37.055Z,3.21
2023-01-19T14:44:10.027Z,3.22
2023-01-19T14:46:38.499Z,3.24
2023-01-19T14:49:06.787Z,3.26
2023-01-19T14:51:34.227Z,3.18
2023-01-19T14:54:02.947Z,3.16
2023-01-19T14:56:32.400Z,3.09
2023-01-19T14:59:02.508Z,3.09
2023-01-19T15:01:31.294Z,3.07
2023-01-19T15:03:58.901Z,3.03
2023-01-19T15:06:26.887Z,2.99
2023-01-19T15:08:54.726Z,2.99
2023-01-19T15:11:33.865Z,2.98
2023-01-19T15:14:02.032Z,3.03
2023-01-19T15:16:33.797Z,3.05
2023-01-19T15:19:01.253Z,3.04
2023-01-19T15:21:28.711Z,3.05
2023-01-19T15:23:56.355Z,3.04
2023-01-19T15:26:26.344Z,3.04
2023-01-19T15:28:56.329Z,3.00
2023-01-19T15:31:24.100Z,2.96
2023-01-19T15:33:51.368Z,2.98
2023-01-19T15:36:21.127Z,2.98
2023-01-19T15:38:51.152Z,3.00
2023-01-19T15:41:25.965Z,2.95
2023-01-19T15:43:55.167Z,2.96
2023-01-19T15:46:23.823Z,2.94
2023-01-19T15:48:51.916Z,2.97
2023-01-19T15:51:21.774Z,2.97
2023-01-19T15:53:49.639Z,2.98
2023-01-19T15:56:23.512Z,3.02
2023-01-19T15:58:51.793Z,3.02
2023-01-19T16:01:22.051Z,3.03
2023-01-19T16:03:50.899Z,2.90
2023-01-19T16:06:21.511Z,3.00
2023-01-19T16:08:48.761Z,3.07
2023-01-19T16:11:18.503Z,3.09
2023-01-19T16:13:46.397Z,3.06
2023-01-19T16:16:19.667Z,3.08
2023-01-19T16:18:47.214Z,3.10
2023-01-19T16:21:18.208Z,3.10
2023-01-19T16:23:45.961Z,3.07
2023-01-19T16:26:43.647Z,3.06
2023-01-19T16:29:11.053Z,3.09
2023-01-19T16:31:39.812Z,3.11
2023-01-19T16:34:09.393Z,3.04
2023-01-19T16:36:41.159Z,3.03
2023-01-19T16:39:13.676Z,3.04
2023-01-19T16:41:41.542Z,3.10
2023-01-19T16:44:10.640Z,3.20
2023-01-19T16:46:40.951Z,3.20
2023-01-19T16:49:15.826Z,3.16
2023-01-19T16:51:44.417Z,3.20
2023-01-19T16:54:14.513Z,3.08
2023-01-19T16:56:44.035Z,3.14
2023-01-19T16:59:12.853Z,3.17
2023-01-19T17:01:46.051Z,3.17
2023-01-19T17:04:14.954Z,3.12
2023-01-19T17:06:42.462Z,3.11
2023-01-19T17:09:10.368Z,3.03
2023-01-19T17:11:40.283Z,3.07
2023-01-19T17:14:11.445Z,3.12
2023-01-19T17:16:39.006Z,3.03
2023-01-19T17:19:07.897Z,3.20
2023-01-19T17:21:35.645Z,3.19
2023-01-19T17:24:03.191Z,3.17
2023-01-19T17:26:31.325Z,3.09
2023-01-19T17:29:00.487Z,3.12
2023-01-19T17:31:28.929Z,3.07
2023-01-19T17:33:56.502Z,3.05
2023-01-19T17:36:25.509Z,3.05
2023-01-19T17:38:54.469Z,3.01
2023-01-19T17:41:24.653Z,3.07
2023-01-19T17:43:52.304Z,3.09
2023-01-19T17:46:21.789Z,3.12
2023-01-19T17:48:56.667Z,3.13
2023-01-19T17:51:24.798Z,3.09
2023-01-19T17:53:53.126Z,3.06
2023-01-19T17:56:27.611Z,3.04
2023-01-19T17:58:58.622Z,2.94
2023-01-19T18:01:31.615Z,2.88
2023-01-19T18:03:59.752Z,2.92
2023-01-19T18:06:27.015Z,2.87
2023-01-19T18:08:54.326Z,2.81
2023-01-19T18:11:21.824Z,2.84
2023-01-19T18:13:50.725Z,2.88
2023-01-19T18:16:29.109Z,2.91
2023-01-19T18:18:57.628Z,2.84
2023-01-19T18:21:29.091Z,2.87
2023-01-19T18:24:04.205Z,2.88
2023-01-19T18:26:33.560Z,2.85
2023-01-19T18:29:01.429Z,2.85
2023-01-19T18:31:29.002Z,2.85
2023-01-19T18:33:56.445Z,2.74
2023-01-19T18:36:23.850Z,2.79
2023-01-19T18:38:52.476Z,2.71
2023-01-19T18:41:21.548Z,2.73
2023-01-19T18:43:49.327Z,2.77
2023-01-19T18:46:17.002Z,2.79
2023-01-19T18:48:44.706Z,2.76
2023-01-19T18:51:14.385Z,2.74
2023-01-19T18:53:42.470Z,2.69
2023-01-19T18:56:12.950Z,2.75
2023-01-19T18:58:40.538Z,2.75
2023-01-19T19:01:27.921Z,2.63
2023-01-19T19:03:56.820Z,2.76
2023-01-19T19:06:39.251Z,2.65
2023-01-19T19:09:06.683Z,2.67
2023-01-19T19:11:34.553Z,2.83
2023-01-19T19:14:04.156Z,2.81
2023-01-19T19:16:34.705Z,2.72
2023-01-19T19:19:02.718Z,2.76
2023-01-19T19:21:29.944Z,2.78
2023-01-19T19:23:58.539Z,2.68
2023-01-19T19:26:28.203Z,2.65
2023-01-19T19:28:55.641Z,2.65
2023-01-19T19:31:25.997Z,2.73
2023-01-19T19:33:55.158Z,2.81
2023-01-19T19:36:24.113Z,2.82
2023-01-19T19:38:52.058Z,2.71
2023-01-19T19:41:22.528Z,2.66
2023-01-19T19:43:50.138Z,2.56
2023-01-19T19:46:20.168Z,2.47
2023-01-19T19:48:48.880Z,2.39
2023-01-19T19:51:22.509Z,2.27
2023-01-19T19:53:51.825Z,2.20
2023-01-19T19:56:23.015Z,2.10
2023-01-19T19:58:51.824Z,2.07
2023-01-19T20:01:23.043Z,2.08
2023-01-19T20:03:52.136Z,2.05
2023-01-19T20:06:22.312Z,2.03
2023-01-19T20:08:51.987Z,2.04
2023-01-19T20:11:22.542Z,2.05
2023-01-19T20:13:50.810Z,2.09
2023-01-19T20:16:20.892Z,2.10
2023-01-19T20:18:54.307Z,2.10
2023-01-19T20:21:29.805Z,2.17
2023-01-19T20:24:00.759Z,2.23
2023-01-19T20:26:31.789Z,2.26
2023-01-19T20:29:02.933Z,2.29
2023-01-19T20:31:33.143Z,2.32
2023-01-19T20:34:05.068Z,2.38
2023-01-19T20:36:33.167Z,2.42
2023-01-19T20:39:01.412Z,2.44
2023-01-19T20:41:28.710Z,2.35
2023-01-19T20:43:56.107Z,2.35
2023-01-19T20:46:23.385Z,2.44
2023-01-19T20:48:53.049Z,2.55
2023-01-19T20:51:21.115Z,2.54
2023-01-19T20:53:48.730Z,2.52
2023-01-19T20:56:16.398Z,2.49
2023-01-19T20:58:43.823Z,2.48
2023-01-19T21:01:14.583Z,2.50
2023-01-19T21:03:42.818Z,2.44
2023-01-19T21:06:10.784Z,2.40
2023-01-19T21:08:38.527Z,2.35
2023-01-19T21:11:07.122Z,2.37
2023-01-19T21:13:35.468Z,2.40
2023-01-19T21:16:05.014Z,2.36
2023-01-19T21:18:33.395Z,2.29
2023-01-19T21:21:00.952Z,2.40
2023-01-19T21:23:28.835Z,2.44
2023-01-19T21:25:59.667Z,2.43
2023-01-19T21:28:28.849Z,2.41
2023-01-19T21:30:57.609Z,2.37
2023-01-19T21:33:25.262Z,2.34
2023-01-19T21:35:57.263Z,2.31
2023-01-19T21:38:30.196Z,2.28
2023-01-19T21:40:58.417Z,2.29
2023-01-19T21:43:26.730Z,2.37
2023-01-19T21:45:54.105Z,2.38
2023-01-19T21:48:22.081Z,2.31
2023-01-19T21:50:58.564Z,2.30
2023-01-19T21:53:25.897Z,2.39
2023-01-19T21:55:53.267Z,2.36
2023-01-19T21:58:23.821Z,2.37
2023-01-19T22:00:58.483Z,2.39
2023-01-19T22:03:27.420Z,2.39
2023-01-19T22:05:56.053Z,2.34
2023-01-19T22:08:24.478Z,2.25
2023-01-19T22:10:51.763Z,2.29
2023-01-19T22:13:19.425Z,2.26
2023-01-19T22:15:46.653Z,2.25
2023-01-19T22:18:13.978Z,2.21
2023-01-19T22:20:41.341Z,2.18
2023-01-19T22:23:08.629Z,2.10
2023-01-19T22:25:35.946Z,2.22
2023-01-19T22:28:03.268Z,2.20
2023-01-19T22:30:30.680Z,2.26
2023-01-19T22:33:00.159Z,2.31
2023-01-19T22:35:28.429Z,2.07
2023-01-19T22:37:55.707Z,2.31
2023-01-19T22:40:23.033Z,2.18
2023-01-19T22:42:50.416Z,2.25
2023-01-19T22:45:17.855Z,2.38
2023-01-19T22:47:46.475Z,2.22
2023-01-19T22:50:15.214Z,2.27
2023-01-19T22:52:42.587Z,1.90
2023-01-19T22:55:10.213Z,1.80
2023-01-19T22:57:38.355Z,1.79
2023-01-19T23:00:09.258Z,1.83
2023-01-19T23:02:37.740Z,1.93
2023-01-19T23:05:06.674Z,1.91
2023-01-19T23:07:34.085Z,1.82
2023-01-19T23:10:01.768Z,2.15
2023-01-19T23:12:33.353Z,2.37
2023-01-19T23:15:00.628Z,2.43
2023-01-19T23:17:29.722Z,2.42
2023-01-19T23:19:57.457Z,2.42
2023-01-19T23:22:25.708Z,2.37
2023-01-19T23:24:53.489Z,2.28
2023-01-19T23:27:20.821Z,2.22
2023-01-19T23:29:48.165Z,2.16
2023-01-19T23:32:15.416Z,2.17
2023-01-19T23:34:43.194Z,2.13
2023-01-19T23:37:11.655Z,2.08
2023-01-19T23:39:39.059Z,2.05
2023-01-19T23:42:09.203Z,2.01
2023-01-19T23:44:38.607Z,1.99
2023-01-19T23:47:05.914Z,1.97
2023-01-19T23:49:33.261Z,1.96
2023-01-19T23:52:00.535Z,1.95
2023-01-19T23:54:51.956Z,1.91
2023-01-19T23:57:19.675Z,1.88
2023-01-19T23:59:47.988Z,1.86
